sensor_id;sensor_type;location;lat;lon;timestamp;temperature;humidity
20594;DHT22;10455;48.732;10.266;2022-10-30T00:03:41;11.20;99.90
20594;DHT22;10455;48.732;10.266;2022-10-30T00:08:43;11.10;99.90
20594;DHT22;10455;48.732;10.266;2022-10-30T00:13:45;11.10;99.90
20594;DHT22;10455;48.732;10.266;2022-10-30T00:18:48;11.20;99.90
20594;DHT22;10455;48.732;10.266;2022-10-30T00:23:52;11.10;99.90
20594;DHT22;10455;48.732;10.266;2022-10-30T00:28:55;11.00;99.90
20594;DHT22;10455;48.732;10.266;2022-10-30T00:33:58;10.90;99.90
20594;DHT22;10455;48.732;10.266;2022-10-30T00:39:00;10.80;99.90
20594;DHT22;10455;48.732;10.266;2022-10-30T00:44:02;10.70;99.90
20594;DHT22;10455;48.732;10.266;2022-10-30T00:49:12;10.50;99.90
20594;DHT22;10455;48.732;10.266;2022-10-30T00:54:17;10.40;99.90
20594;DHT22;10455;48.732;10.266;2022-10-30T00:59:22;10.40;99.90
20594;DHT22;10455;48.732;10.266;2022-10-30T01:04:28;10.60;99.90
20594;DHT22;10455;48.732;10.266;2022-10-30T01:09:30;10.90;99.90
20594;DHT22;10455;48.732;10.266;2022-10-30T01:14:33;10.80;99.90
20594;DHT22;10455;48.732;10.266;2022-10-30T01:19:43;10.60;99.90
20594;DHT22;10455;48.732;10.266;2022-10-30T01:24:54;10.50;99.90
20594;DHT22;10455;48.732;10.266;2022-10-30T01:30:07;10.40;99.90
20594;DHT22;10455;48.732;10.266;2022-10-30T01:35:17;10.30;99.90
20594;DHT22;10455;48.732;10.266;2022-10-30T01:40:19;10.20;99.90
20594;DHT22;10455;48.732;10.266;2022-10-30T01:45:26;10.00;99.90
20594;DHT22;10455;48.732;10.266;2022-10-30T01:50:39;9.90;99.90
20594;DHT22;10455;48.732;10.266;2022-10-30T01:55:51;9.70;99.90
20594;DHT22;10455;48.732;10.266;2022-10-30T02:00:56;9.50;99.90
20594;DHT22;10455;48.732;10.266;2022-10-30T02:06:00;9.40;99.90
20594;DHT22;10455;48.732;10.266;2022-10-30T02:11:02;9.40;99.90
20594;DHT22;10455;48.732;10.266;2022-10-30T02:16:06;9.30;99.90
20594;DHT22;10455;48.732;10.266;2022-10-30T02:21:10;9.40;99.90
20594;DHT22;10455;48.732;10.266;2022-10-30T02:26:12;9.40;99.90
20594;DHT22;10455;48.732;10.266;2022-10-30T02:31:13;9.40;99.90
20594;DHT22;10455;48.732;10.266;2022-10-30T02:36:17;9.30;99.90
20594;DHT22;10455;48.732;10.266;2022-10-30T02:41:19;9.30;99.90
20594;DHT22;10455;48.732;10.266;2022-10-30T02:46:21;9.20;99.90
20594;DHT22;10455;48.732;10.266;2022-10-30T02:51:24;9.10;99.90
20594;DHT22;10455;48.732;10.266;2022-10-30T02:56:26;9.10;99.90
20594;DHT22;10455;48.732;10.266;2022-10-30T03:01:28;9.10;99.90
20594;DHT22;10455;48.732;10.266;2022-10-30T03:06:32;9.00;99.90
20594;DHT22;10455;48.732;10.266;2022-10-30T03:11:34;8.90;99.90
20594;DHT22;10455;48.732;10.266;2022-10-30T03:16:36;8.90;99.90
20594;DHT22;10455;48.732;10.266;2022-10-30T03:21:39;8.80;99.90
20594;DHT22;10455;48.732;10.266;2022-10-30T03:26:41;8.80;99.90
20594;DHT22;10455;48.732;10.266;2022-10-30T03:31:43;8.60;99.90
20594;DHT22;10455;48.732;10.266;2022-10-30T03:36:46;8.50;99.90
20594;DHT22;10455;48.732;10.266;2022-10-30T03:41:48;8.50;99.90
20594;DHT22;10455;48.732;10.266;2022-10-30T03:46:50;8.40;99.90
20594;DHT22;10455;48.732;10.266;2022-10-30T03:51:53;8.50;99.90
20594;DHT22;10455;48.732;10.266;2022-10-30T03:56:55;8.50;99.90
20594;DHT22;10455;48.732;10.266;2022-10-30T04:01:57;8.40;99.90
20594;DHT22;10455;48.732;10.266;2022-10-30T04:07:00;8.40;99.90
20594;DHT22;10455;48.732;10.266;2022-10-30T04:12:03;8.50;99.90
20594;DHT22;10455;48.732;10.266;2022-10-30T04:17:05;8.50;99.90
20594;DHT22;10455;48.732;10.266;2022-10-30T04:22:09;8.50;99.90
20594;DHT22;10455;48.732;10.266;2022-10-30T04:27:10;8.30;99.90
20594;DHT22;10455;48.732;10.266;2022-10-30T04:32:13;8.40;99.90
20594;DHT22;10455;48.732;10.266;2022-10-30T04:37:16;8.40;99.90
20594;DHT22;10455;48.732;10.266;2022-10-30T04:42:19;8.30;99.90
20594;DHT22;10455;48.732;10.266;2022-10-30T04:47:20;8.20;99.90
20594;DHT22;10455;48.732;10.266;2022-10-30T04:52:24;8.20;99.90
20594;DHT22;10455;48.732;10.266;2022-10-30T04:57:26;8.10;99.90
20594;DHT22;10455;48.732;10.266;2022-10-30T05:02:27;8.10;99.90
20594;DHT22;10455;48.732;10.266;2022-10-30T05:07:31;8.10;99.90
20594;DHT22;10455;48.732;10.266;2022-10-30T05:12:33;8.00;99.90
20594;DHT22;10455;48.732;10.266;2022-10-30T05:17:35;7.90;99.90
20594;DHT22;10455;48.732;10.266;2022-10-30T05:22:38;7.90;99.90
20594;DHT22;10455;48.732;10.266;2022-10-30T05:27:40;7.80;99.90
20594;DHT22;10455;48.732;10.266;2022-10-30T05:32:42;7.90;99.90
20594;DHT22;10455;48.732;10.266;2022-10-30T05:37:45;8.00;99.90
20594;DHT22;10455;48.732;10.266;2022-10-30T05:42:47;8.20;99.90
20594;DHT22;10455;48.732;10.266;2022-10-30T05:47:57;8.20;99.90
20594;DHT22;10455;48.732;10.266;2022-10-30T05:53:02;8.00;99.90
20594;DHT22;10455;48.732;10.266;2022-10-30T05:58:05;8.00;99.90
20594;DHT22;10455;48.732;10.266;2022-10-30T06:03:10;8.00;99.90
20594;DHT22;10455;48.732;10.266;2022-10-30T06:08:14;7.90;99.90
20594;DHT22;10455;48.732;10.266;2022-10-30T06:13:17;7.90;99.90
20594;DHT22;10455;48.732;10.266;2022-10-30T06:18:18;8.10;99.90
20594;DHT22;10455;48.732;10.266;2022-10-30T06:23:22;8.10;99.90
20594;DHT22;10455;48.732;10.266;2022-10-30T06:28:24;8.20;99.90
20594;DHT22;10455;48.732;10.266;2022-10-30T06:33:25;8.30;99.90
20594;DHT22;10455;48.732;10.266;2022-10-30T06:38:29;8.50;99.90
20594;DHT22;10455;48.732;10.266;2022-10-30T06:43:31;8.60;99.90
20594;DHT22;10455;48.732;10.266;2022-10-30T06:48:33;8.70;99.90
20594;DHT22;10455;48.732;10.266;2022-10-30T06:53:36;8.80;99.90
20594;DHT22;10455;48.732;10.266;2022-10-30T06:58:38;9.00;99.90
20594;DHT22;10455;48.732;10.266;2022-10-30T07:03:40;9.00;99.90
20594;DHT22;10455;48.732;10.266;2022-10-30T07:08:43;9.20;99.90
20594;DHT22;10455;48.732;10.266;2022-10-30T07:13:45;9.40;99.90
20594;DHT22;10455;48.732;10.266;2022-10-30T07:18:47;9.70;99.90
20594;DHT22;10455;48.732;10.266;2022-10-30T07:23:50;10.00;99.90
20594;DHT22;10455;48.732;10.266;2022-10-30T07:28:52;10.20;99.90
20594;DHT22;10455;48.732;10.266;2022-10-30T07:33:54;10.50;99.90
20594;DHT22;10455;48.732;10.266;2022-10-30T07:38:57;10.80;99.90
20594;DHT22;10455;48.732;10.266;2022-10-30T07:43:59;11.10;99.90
20594;DHT22;10455;48.732;10.266;2022-10-30T07:49:01;11.30;99.90
20594;DHT22;10455;48.732;10.266;2022-10-30T07:54:04;11.70;99.90
20594;DHT22;10455;48.732;10.266;2022-10-30T07:59:06;11.80;99.90
20594;DHT22;10455;48.732;10.266;2022-10-30T08:04:08;12.10;99.90
20594;DHT22;10455;48.732;10.266;2022-10-30T08:09:12;12.50;99.90
20594;DHT22;10455;48.732;10.266;2022-10-30T08:14:14;12.70;99.90
20594;DHT22;10455;48.732;10.266;2022-10-30T08:19:15;13.00;99.90
20594;DHT22;10455;48.732;10.266;2022-10-30T08:24:19;13.20;99.90
20594;DHT22;10455;48.732;10.266;2022-10-30T08:29:21;13.60;99.90
20594;DHT22;10455;48.732;10.266;2022-10-30T08:34:23;14.10;99.90
20594;DHT22;10455;48.732;10.266;2022-10-30T08:39:27;14.60;99.90
20594;DHT22;10455;48.732;10.266;2022-10-30T08:44:29;15.10;99.90
20594;DHT22;10455;48.732;10.266;2022-10-30T08:49:31;15.70;99.90
20594;DHT22;10455;48.732;10.266;2022-10-30T08:54:34;16.90;99.90
20594;DHT22;10455;48.732;10.266;2022-10-30T08:59:36;22.80;99.90
20594;DHT22;10455;48.732;10.266;2022-10-30T09:04:38;26.70;99.90
20594;DHT22;10455;48.732;10.266;2022-10-30T09:09:41;29.30;99.90
20594;DHT22;10455;48.732;10.266;2022-10-30T09:14:43;30.80;99.90
20594;DHT22;10455;48.732;10.266;2022-10-30T09:19:45;32.10;99.90
20594;DHT22;10455;48.732;10.266;2022-10-30T09:24:49;32.50;98.00
20594;DHT22;10455;48.732;10.266;2022-10-30T09:29:50;32.40;97.60
20594;DHT22;10455;48.732;10.266;2022-10-30T09:34:52;33.50;98.10
20594;DHT22;10455;48.732;10.266;2022-10-30T09:39:56;34.10;94.40
20594;DHT22;10455;48.732;10.266;2022-10-30T09:45:08;34.80;94.00
20594;DHT22;10455;48.732;10.266;2022-10-30T09:50:23;35.20;93.00
20594;DHT22;10455;48.732;10.266;2022-10-30T09:55:38;33.80;93.40
20594;DHT22;10455;48.732;10.266;2022-10-30T10:00:47;32.50;95.40
20594;DHT22;10455;48.732;10.266;2022-10-30T10:05:51;30.70;97.50
20594;DHT22;10455;48.732;10.266;2022-10-30T10:10:58;30.90;96.30
20594;DHT22;10455;48.732;10.266;2022-10-30T10:16:06;31.00;96.80
20594;DHT22;10455;48.732;10.266;2022-10-30T10:21:17;28.70;99.90
20594;DHT22;10455;48.732;10.266;2022-10-30T10:26:43;29.20;99.90
20594;DHT22;10455;48.732;10.266;2022-10-30T10:31:59;29.60;97.00
20594;DHT22;10455;48.732;10.266;2022-10-30T10:37:16;30.60;95.30
20594;DHT22;10455;48.732;10.266;2022-10-30T10:42:30;31.70;93.30
20594;DHT22;10455;48.732;10.266;2022-10-30T10:47:55;31.70;90.20
20594;DHT22;10455;48.732;10.266;2022-10-30T10:53:02;31.60;94.50
20594;DHT22;10455;48.732;10.266;2022-10-30T10:58:14;31.40;94.10
20594;DHT22;10455;48.732;10.266;2022-10-30T11:03:22;31.30;94.50
20594;DHT22;10455;48.732;10.266;2022-10-30T11:08:27;30.10;95.20
20594;DHT22;10455;48.732;10.266;2022-10-30T11:13:34;30.40;99.90
20594;DHT22;10455;48.732;10.266;2022-10-30T11:18:36;29.90;99.90
20594;DHT22;10455;48.732;10.266;2022-10-30T11:23:40;28.10;99.90
20594;DHT22;10455;48.732;10.266;2022-10-30T11:28:48;27.60;99.90
20594;DHT22;10455;48.732;10.266;2022-10-30T11:33:51;27.20;99.90
20594;DHT22;10455;48.732;10.266;2022-10-30T11:38:56;27.20;99.90
20594;DHT22;10455;48.732;10.266;2022-10-30T11:44:11;26.80;99.90
20594;DHT22;10455;48.732;10.266;2022-10-30T11:49:24;26.40;99.90
20594;DHT22;10455;48.732;10.266;2022-10-30T11:54:26;24.90;99.90
20594;DHT22;10455;48.732;10.266;2022-10-30T11:59:30;24.10;99.90
20594;DHT22;10455;48.732;10.266;2022-10-30T12:04:32;23.70;99.90
20594;DHT22;10455;48.732;10.266;2022-10-30T12:09:40;23.60;99.90
20594;DHT22;10455;48.732;10.266;2022-10-30T12:14:44;23.50;99.90
20594;DHT22;10455;48.732;10.266;2022-10-30T12:19:48;24.00;99.90
20594;DHT22;10455;48.732;10.266;2022-10-30T12:24:51;24.50;99.90
20594;DHT22;10455;48.732;10.266;2022-10-30T12:30:02;24.50;99.90
20594;DHT22;10455;48.732;10.266;2022-10-30T12:35:13;24.30;99.90
20594;DHT22;10455;48.732;10.266;2022-10-30T12:40:20;23.80;99.90
20594;DHT22;10455;48.732;10.266;2022-10-30T12:45:28;23.80;99.90
20594;DHT22;10455;48.732;10.266;2022-10-30T12:50:39;23.90;99.90
20594;DHT22;10455;48.732;10.266;2022-10-30T12:55:46;23.90;99.90
20594;DHT22;10455;48.732;10.266;2022-10-30T13:00:55;23.80;99.90
20594;DHT22;10455;48.732;10.266;2022-10-30T13:06:04;23.90;99.90
20594;DHT22;10455;48.732;10.266;2022-10-30T13:11:12;24.00;99.90
20594;DHT22;10455;48.732;10.266;2022-10-30T13:16:24;24.20;99.90
20594;DHT22;10455;48.732;10.266;2022-10-30T13:21:30;24.30;99.70
20594;DHT22;10455;48.732;10.266;2022-10-30T13:26:39;24.30;99.90
20594;DHT22;10455;48.732;10.266;2022-10-30T13:31:57;24.10;99.90
20594;DHT22;10455;48.732;10.266;2022-10-30T13:37:06;24.10;99.60
20594;DHT22;10455;48.732;10.266;2022-10-30T13:42:24;24.00;98.20
20594;DHT22;10455;48.732;10.266;2022-10-30T13:47:36;24.00;99.50
20594;DHT22;10455;48.732;10.266;2022-10-30T13:52:45;24.10;99.50
20594;DHT22;10455;48.732;10.266;2022-10-30T13:57:54;24.10;99.50
20594;DHT22;10455;48.732;10.266;2022-10-30T14:03:25;24.30;99.40
20594;DHT22;10455;48.732;10.266;2022-10-30T14:08:34;25.00;98.90
20594;DHT22;10455;48.732;10.266;2022-10-30T14:13:45;25.30;98.00
20594;DHT22;10455;48.732;10.266;2022-10-30T14:19:00;25.70;97.50
20594;DHT22;10455;48.732;10.266;2022-10-30T14:24:04;26.90;96.40
20594;DHT22;10455;48.732;10.266;2022-10-30T14:34:57;26.40;94.90
20594;DHT22;10455;48.732;10.266;2022-10-30T14:40:30;26.00;94.80
20594;DHT22;10455;48.732;10.266;2022-10-30T14:45:41;25.80;94.40
20594;DHT22;10455;48.732;10.266;2022-10-30T14:50:54;25.00;95.20
20594;DHT22;10455;48.732;10.266;2022-10-30T14:56:03;24.50;95.50
20594;DHT22;10455;48.732;10.266;2022-10-30T15:01:29;24.20;97.60
20594;DHT22;10455;48.732;10.266;2022-10-30T15:06:36;23.70;99.90
20594;DHT22;10455;48.732;10.266;2022-10-30T15:12:04;23.00;99.90
20594;DHT22;10455;48.732;10.266;2022-10-30T15:17:20;22.20;99.90
20594;DHT22;10455;48.732;10.266;2022-10-30T15:22:27;21.30;99.90
20594;DHT22;10455;48.732;10.266;2022-10-30T15:27:31;20.60;99.90
20594;DHT22;10455;48.732;10.266;2022-10-30T15:32:40;19.90;99.90
20594;DHT22;10455;48.732;10.266;2022-10-30T15:38:00;19.40;99.90
20594;DHT22;10455;48.732;10.266;2022-10-30T15:43:04;19.00;99.90
20594;DHT22;10455;48.732;10.266;2022-10-30T15:48:10;18.50;99.90
20594;DHT22;10455;48.732;10.266;2022-10-30T15:53:20;17.90;99.90
20594;DHT22;10455;48.732;10.266;2022-10-30T15:58:24;17.20;99.90
20594;DHT22;10455;48.732;10.266;2022-10-30T16:03:27;16.70;99.90
20594;DHT22;10455;48.732;10.266;2022-10-30T16:08:30;16.30;99.90
20594;DHT22;10455;48.732;10.266;2022-10-30T16:13:34;15.80;99.90
20594;DHT22;10455;48.732;10.266;2022-10-30T16:18:36;15.40;99.90
20594;DHT22;10455;48.732;10.266;2022-10-30T16:23:46;15.10;99.90
20594;DHT22;10455;48.732;10.266;2022-10-30T16:28:48;14.80;99.90
20594;DHT22;10455;48.732;10.266;2022-10-30T16:33:51;14.50;99.90
20594;DHT22;10455;48.732;10.266;2022-10-30T16:38:54;14.30;99.90
20594;DHT22;10455;48.732;10.266;2022-10-30T16:44:12;14.00;99.90
20594;DHT22;10455;48.732;10.266;2022-10-30T16:49:17;13.80;99.90
20594;DHT22;10455;48.732;10.266;2022-10-30T16:54:24;13.60;99.90
20594;DHT22;10455;48.732;10.266;2022-10-30T16:59:30;13.60;99.90
20594;DHT22;10455;48.732;10.266;2022-10-30T17:04:34;13.40;99.90
20594;DHT22;10455;48.732;10.266;2022-10-30T17:09:38;13.30;99.90
20594;DHT22;10455;48.732;10.266;2022-10-30T17:14:47;13.20;99.90
20594;DHT22;10455;48.732;10.266;2022-10-30T17:19:56;13.10;99.90
20594;DHT22;10455;48.732;10.266;2022-10-30T17:24:59;13.00;99.90
20594;DHT22;10455;48.732;10.266;2022-10-30T17:30:02;12.80;99.90
20594;DHT22;10455;48.732;10.266;2022-10-30T17:35:12;12.60;99.90
20594;DHT22;10455;48.732;10.266;2022-10-30T17:40:15;12.60;99.90
20594;DHT22;10455;48.732;10.266;2022-10-30T17:45:18;12.60;99.90
20594;DHT22;10455;48.732;10.266;2022-10-30T17:50:20;12.50;99.90
20594;DHT22;10455;48.732;10.266;2022-10-30T17:55:27;12.40;99.90
20594;DHT22;10455;48.732;10.266;2022-10-30T18:00:30;12.30;99.90
20594;DHT22;10455;48.732;10.266;2022-10-30T18:05:33;12.30;99.90
20594;DHT22;10455;48.732;10.266;2022-10-30T18:10:37;12.30;99.90
20594;DHT22;10455;48.732;10.266;2022-10-30T18:15:41;12.10;99.90
20594;DHT22;10455;48.732;10.266;2022-10-30T18:20:43;11.90;99.90
20594;DHT22;10455;48.732;10.266;2022-10-30T18:25:47;11.80;99.90
20594;DHT22;10455;48.732;10.266;2022-10-30T18:30:51;11.80;99.90
20594;DHT22;10455;48.732;10.266;2022-10-30T18:35:53;11.70;99.90
20594;DHT22;10455;48.732;10.266;2022-10-30T18:40:58;11.50;99.90
20594;DHT22;10455;48.732;10.266;2022-10-30T18:46:00;11.50;99.90
20594;DHT22;10455;48.732;10.266;2022-10-30T18:51:03;11.40;99.90
20594;DHT22;10455;48.732;10.266;2022-10-30T18:56:08;11.30;99.90
20594;DHT22;10455;48.732;10.266;2022-10-30T19:01:11;11.20;99.90
20594;DHT22;10455;48.732;10.266;2022-10-30T19:06:14;11.20;99.90
20594;DHT22;10455;48.732;10.266;2022-10-30T19:11:19;11.00;99.90
20594;DHT22;10455;48.732;10.266;2022-10-30T19:16:21;11.00;99.90
20594;DHT22;10455;48.732;10.266;2022-10-30T19:21:25;11.00;99.90
20594;DHT22;10455;48.732;10.266;2022-10-30T19:26:28;10.80;99.90
20594;DHT22;10455;48.732;10.266;2022-10-30T19:31:30;10.80;99.90
20594;DHT22;10455;48.732;10.266;2022-10-30T19:36:34;10.80;99.90
20594;DHT22;10455;48.732;10.266;2022-10-30T19:41:38;10.80;99.90
20594;DHT22;10455;48.732;10.266;2022-10-30T19:46:40;10.70;99.90
20594;DHT22;10455;48.732;10.266;2022-10-30T19:51:42;10.60;99.90
20594;DHT22;10455;48.732;10.266;2022-10-30T19:56:45;10.50;99.90
20594;DHT22;10455;48.732;10.266;2022-10-30T20:01:47;10.40;99.90
20594;DHT22;10455;48.732;10.266;2022-10-30T20:06:49;10.40;99.90
20594;DHT22;10455;48.732;10.266;2022-10-30T20:11:52;10.50;99.90
20594;DHT22;10455;48.732;10.266;2022-10-30T20:16:54;10.30;99.90
20594;DHT22;10455;48.732;10.266;2022-10-30T20:21:56;10.20;99.90
20594;DHT22;10455;48.732;10.266;2022-10-30T20:27:00;10.20;99.90
20594;DHT22;10455;48.732;10.266;2022-10-30T20:32:02;10.20;99.90
20594;DHT22;10455;48.732;10.266;2022-10-30T20:37:03;10.30;99.90
20594;DHT22;10455;48.732;10.266;2022-10-30T20:42:07;10.30;99.90
20594;DHT22;10455;48.732;10.266;2022-10-30T20:47:10;10.10;99.90
20594;DHT22;10455;48.732;10.266;2022-10-30T20:52:12;10.00;99.90
20594;DHT22;10455;48.732;10.266;2022-10-30T20:57:15;9.90;99.90
20594;DHT22;10455;48.732;10.266;2022-10-30T21:02:17;9.70;99.90
20594;DHT22;10455;48.732;10.266;2022-10-30T21:07:21;9.60;99.90
20594;DHT22;10455;48.732;10.266;2022-10-30T21:12:25;9.60;99.90
20594;DHT22;10455;48.732;10.266;2022-10-30T21:17:27;9.50;99.90
20594;DHT22;10455;48.732;10.266;2022-10-30T21:22:29;9.40;99.90
20594;DHT22;10455;48.732;10.266;2022-10-30T21:27:32;9.30;99.90
20594;DHT22;10455;48.732;10.266;2022-10-30T21:32:34;9.30;99.90
20594;DHT22;10455;48.732;10.266;2022-10-30T21:37:36;9.50;99.90
20594;DHT22;10455;48.732;10.266;2022-10-30T21:42:39;9.40;99.90
20594;DHT22;10455;48.732;10.266;2022-10-30T21:47:41;9.30;99.90
20594;DHT22;10455;48.732;10.266;2022-10-30T21:52:43;9.30;99.90
20594;DHT22;10455;48.732;10.266;2022-10-30T21:57:46;9.20;99.90
20594;DHT22;10455;48.732;10.266;2022-10-30T22:02:48;9.10;99.90
20594;DHT22;10455;48.732;10.266;2022-10-30T22:07:51;9.00;99.90
20594;DHT22;10455;48.732;10.266;2022-10-30T22:12:54;8.90;99.90
20594;DHT22;10455;48.732;10.266;2022-10-30T22:17:57;8.90;99.90
20594;DHT22;10455;48.732;10.266;2022-10-30T22:22:59;9.00;99.90
20594;DHT22;10455;48.732;10.266;2022-10-30T22:28:02;8.90;99.90
20594;DHT22;10455;48.732;10.266;2022-10-30T22:33:04;8.70;99.90
20594;DHT22;10455;48.732;10.266;2022-10-30T22:38:06;8.80;99.90
20594;DHT22;10455;48.732;10.266;2022-10-30T22:43:09;8.90;99.90
20594;DHT22;10455;48.732;10.266;2022-10-30T22:48:11;8.90;99.90
20594;DHT22;10455;48.732;10.266;2022-10-30T22:53:13;8.70;99.90
20594;DHT22;10455;48.732;10.266;2022-10-30T22:58:16;8.70;99.90
20594;DHT22;10455;48.732;10.266;2022-10-30T23:03:18;8.60;99.90
20594;DHT22;10455;48.732;10.266;2022-10-30T23:08:20;8.50;99.90
20594;DHT22;10455;48.732;10.266;2022-10-30T23:13:24;8.40;99.90
20594;DHT22;10455;48.732;10.266;2022-10-30T23:18:26;8.40;99.90
20594;DHT22;10455;48.732;10.266;2022-10-30T23:23:28;8.30;99.90
20594;DHT22;10455;48.732;10.266;2022-10-30T23:28:31;8.20;99.90
20594;DHT22;10455;48.732;10.266;2022-10-30T23:33:33;8.20;99.90
20594;DHT22;10455;48.732;10.266;2022-10-30T23:38:36;8.00;99.90
20594;DHT22;10455;48.732;10.266;2022-10-30T23:43:39;8.00;99.90
20594;DHT22;10455;48.732;10.266;2022-10-30T23:48:41;8.20;99.90
20594;DHT22;10455;48.732;10.266;2022-10-30T23:53:43;8.30;99.90
20594;DHT22;10455;48.732;10.266;2022-10-30T23:58:48;8.30;99.90
